sensor_id;sensor_type;location;lat;lon;timestamp;P1;durP1;ratioP1;P2;durP2;ratioP2
36253;SDS011;22291;52.250;21.228;2024-02-15T00:02:23;11.95;;;6.47;;
36253;SDS011;22291;52.250;21.228;2024-02-15T00:04:50;13.30;;;6.42;;
36253;SDS011;22291;52.250;21.228;2024-02-15T00:07:16;13.98;;;6.97;;
36253;SDS011;22291;52.250;21.228;2024-02-15T00:09:43;11.88;;;6.42;;
36253;SDS011;22291;52.250;21.228;2024-02-15T00:12:11;14.55;;;6.08;;
36253;SDS011;22291;52.250;21.228;2024-02-15T00:14:39;13.80;;;6.53;;
36253;SDS011;22291;52.250;21.228;2024-02-15T00:17:05;10.48;;;5.83;;
36253;SDS011;22291;52.250;21.228;2024-02-15T00:19:34;14.43;;;6.50;;
36253;SDS011;22291;52.250;21.228;2024-02-15T00:22:00;12.28;;;6.25;;
36253;SDS011;22291;52.250;21.228;2024-02-15T00:24:28;12.05;;;6.50;;
36253;SDS011;22291;52.250;21.228;2024-02-15T00:26:56;11.40;;;6.62;;
36253;SDS011;22291;52.250;21.228;2024-02-15T00:29:22;14.35;;;6.47;;
36253;SDS011;22291;52.250;21.228;2024-02-15T00:31:50;11.00;;;6.08;;
36253;SDS011;22291;52.250;21.228;2024-02-15T00:34:17;12.40;;;6.35;;
36253;SDS011;22291;52.250;21.228;2024-02-15T00:36:43;10.80;;;5.92;;
36253;SDS011;22291;52.250;21.228;2024-02-15T00:39:10;15.65;;;7.00;;
36253;SDS011;22291;52.250;21.228;2024-02-15T00:41:40;11.80;;;6.55;;
36253;SDS011;22291;52.250;21.228;2024-02-15T00:44:08;12.63;;;7.40;;
36253;SDS011;22291;52.250;21.228;2024-02-15T00:46:37;11.97;;;6.93;;
36253;SDS011;22291;52.250;21.228;2024-02-15T00:49:07;15.85;;;6.35;;
36253;SDS011;22291;52.250;21.228;2024-02-15T00:51:34;13.50;;;7.08;;
36253;SDS011;22291;52.250;21.228;2024-02-15T00:54:02;13.50;;;6.30;;
36253;SDS011;22291;52.250;21.228;2024-02-15T00:56:30;17.75;;;7.47;;
36253;SDS011;22291;52.250;21.228;2024-02-15T00:59:02;14.00;;;7.30;;
36253;SDS011;22291;52.250;21.228;2024-02-15T01:01:26;13.78;;;6.87;;
36253;SDS011;22291;52.250;21.228;2024-02-15T01:03:52;15.83;;;7.37;;
36253;SDS011;22291;52.250;21.228;2024-02-15T01:06:19;16.55;;;6.95;;
36253;SDS011;22291;52.250;21.228;2024-02-15T01:08:45;15.70;;;7.45;;
36253;SDS011;22291;52.250;21.228;2024-02-15T01:11:12;15.63;;;7.62;;
36253;SDS011;22291;52.250;21.228;2024-02-15T01:13:45;14.95;;;7.28;;
36253;SDS011;22291;52.250;21.228;2024-02-15T01:16:12;15.95;;;7.80;;
36253;SDS011;22291;52.250;21.228;2024-02-15T01:18:39;19.23;;;8.38;;
36253;SDS011;22291;52.250;21.228;2024-02-15T01:21:05;15.58;;;7.17;;
36253;SDS011;22291;52.250;21.228;2024-02-15T01:23:33;13.80;;;7.47;;
36253;SDS011;22291;52.250;21.228;2024-02-15T01:26:01;12.80;;;6.97;;
36253;SDS011;22291;52.250;21.228;2024-02-15T01:28:30;13.93;;;7.53;;
36253;SDS011;22291;52.250;21.228;2024-02-15T01:30:58;15.45;;;7.53;;
36253;SDS011;22291;52.250;21.228;2024-02-15T01:33:26;14.47;;;7.17;;
36253;SDS011;22291;52.250;21.228;2024-02-15T01:35:52;14.40;;;6.67;;
36253;SDS011;22291;52.250;21.228;2024-02-15T01:38:20;18.20;;;7.28;;
36253;SDS011;22291;52.250;21.228;2024-02-15T01:40:47;14.60;;;7.03;;
36253;SDS011;22291;52.250;21.228;2024-02-15T01:43:15;14.85;;;7.65;;
36253;SDS011;22291;52.250;21.228;2024-02-15T01:45:41;14.28;;;7.35;;
36253;SDS011;22291;52.250;21.228;2024-02-15T01:48:09;78.65;;;72.97;;
36253;SDS011;22291;52.250;21.228;2024-02-15T01:50:37;10.72;;;4.92;;
36253;SDS011;22291;52.250;21.228;2024-02-15T01:53:06;12.00;;;7.12;;
36253;SDS011;22291;52.250;21.228;2024-02-15T01:55:35;23.77;;;14.53;;
36253;SDS011;22291;52.250;21.228;2024-02-15T01:58:05;76.33;;;70.00;;
36253;SDS011;22291;52.250;21.228;2024-02-15T02:00:34;15.63;;;7.87;;
36253;SDS011;22291;52.250;21.228;2024-02-15T02:03:04;25.27;;;8.08;;
36253;SDS011;22291;52.250;21.228;2024-02-15T02:05:35;15.30;;;7.08;;
36253;SDS011;22291;52.250;21.228;2024-02-15T02:08:05;16.80;;;7.35;;
36253;SDS011;22291;52.250;21.228;2024-02-15T02:10:36;14.28;;;6.92;;
36253;SDS011;22291;52.250;21.228;2024-02-15T02:15:33;13.62;;;7.65;;
36253;SDS011;22291;52.250;21.228;2024-02-15T02:18:04;15.43;;;7.58;;
36253;SDS011;22291;52.250;21.228;2024-02-15T02:20:32;17.05;;;7.80;;
36253;SDS011;22291;52.250;21.228;2024-02-15T02:23:07;17.77;;;7.57;;
36253;SDS011;22291;52.250;21.228;2024-02-15T02:25:43;16.40;;;7.92;;
36253;SDS011;22291;52.250;21.228;2024-02-15T02:28:13;16.12;;;7.80;;
36253;SDS011;22291;52.250;21.228;2024-02-15T02:30:42;17.77;;;8.45;;
36253;SDS011;22291;52.250;21.228;2024-02-15T02:33:11;17.95;;;8.68;;
36253;SDS011;22291;52.250;21.228;2024-02-15T02:35:40;14.58;;;8.23;;
36253;SDS011;22291;52.250;21.228;2024-02-15T02:38:08;14.18;;;8.25;;
36253;SDS011;22291;52.250;21.228;2024-02-15T02:40:35;15.35;;;8.50;;
36253;SDS011;22291;52.250;21.228;2024-02-15T02:43:03;14.83;;;8.30;;
36253;SDS011;22291;52.250;21.228;2024-02-15T02:45:32;16.27;;;8.88;;
36253;SDS011;22291;52.250;21.228;2024-02-15T02:48:00;15.10;;;7.93;;
36253;SDS011;22291;52.250;21.228;2024-02-15T02:50:26;21.17;;;8.35;;
36253;SDS011;22291;52.250;21.228;2024-02-15T02:52:54;18.00;;;8.18;;
36253;SDS011;22291;52.250;21.228;2024-02-15T02:55:22;16.02;;;7.95;;
36253;SDS011;22291;52.250;21.228;2024-02-15T02:57:49;16.57;;;8.85;;
36253;SDS011;22291;52.250;21.228;2024-02-15T03:00:18;15.15;;;7.90;;
36253;SDS011;22291;52.250;21.228;2024-02-15T03:02:48;18.17;;;8.15;;
36253;SDS011;22291;52.250;21.228;2024-02-15T03:05:14;14.50;;;8.23;;
36253;SDS011;22291;52.250;21.228;2024-02-15T03:07:44;12.85;;;8.10;;
36253;SDS011;22291;52.250;21.228;2024-02-15T03:10:13;17.12;;;8.13;;
36253;SDS011;22291;52.250;21.228;2024-02-15T03:12:42;15.90;;;8.03;;
36253;SDS011;22291;52.250;21.228;2024-02-15T03:15:12;18.42;;;8.93;;
36253;SDS011;22291;52.250;21.228;2024-02-15T03:17:42;19.62;;;8.58;;
36253;SDS011;22291;52.250;21.228;2024-02-15T03:20:15;16.52;;;7.95;;
36253;SDS011;22291;52.250;21.228;2024-02-15T03:22:44;13.53;;;7.78;;
36253;SDS011;22291;52.250;21.228;2024-02-15T03:25:10;21.37;;;11.35;;
36253;SDS011;22291;52.250;21.228;2024-02-15T03:27:39;16.62;;;7.75;;
36253;SDS011;22291;52.250;21.228;2024-02-15T03:30:07;18.00;;;8.38;;
36253;SDS011;22291;52.250;21.228;2024-02-15T03:32:37;16.77;;;7.70;;
36253;SDS011;22291;52.250;21.228;2024-02-15T03:35:06;15.65;;;8.25;;
36253;SDS011;22291;52.250;21.228;2024-02-15T03:37:34;15.35;;;7.78;;
36253;SDS011;22291;52.250;21.228;2024-02-15T03:40:05;17.12;;;8.23;;
36253;SDS011;22291;52.250;21.228;2024-02-15T03:42:36;16.95;;;7.70;;
36253;SDS011;22291;52.250;21.228;2024-02-15T03:45:06;17.45;;;7.72;;
36253;SDS011;22291;52.250;21.228;2024-02-15T03:47:33;15.98;;;8.03;;
36253;SDS011;22291;52.250;21.228;2024-02-15T03:50:06;20.12;;;8.70;;
36253;SDS011;22291;52.250;21.228;2024-02-15T03:52:36;14.93;;;7.80;;
36253;SDS011;22291;52.250;21.228;2024-02-15T03:55:07;9.70;;;5.75;;
36253;SDS011;22291;52.250;21.228;2024-02-15T03:57:35;12.65;;;7.20;;
36253;SDS011;22291;52.250;21.228;2024-02-15T04:00:12;16.75;;;7.67;;
36253;SDS011;22291;52.250;21.228;2024-02-15T04:02:50;16.02;;;7.92;;
36253;SDS011;22291;52.250;21.228;2024-02-15T04:05:18;14.63;;;8.23;;
36253;SDS011;22291;52.250;21.228;2024-02-15T04:07:48;12.68;;;7.50;;
36253;SDS011;22291;52.250;21.228;2024-02-15T04:12:47;16.02;;;7.78;;
36253;SDS011;22291;52.250;21.228;2024-02-15T04:15:14;15.72;;;8.70;;
36253;SDS011;22291;52.250;21.228;2024-02-15T04:17:43;13.22;;;7.85;;
36253;SDS011;22291;52.250;21.228;2024-02-15T04:20:12;17.75;;;8.03;;
36253;SDS011;22291;52.250;21.228;2024-02-15T04:22:41;16.30;;;9.23;;
36253;SDS011;22291;52.250;21.228;2024-02-15T04:25:11;14.70;;;7.95;;
36253;SDS011;22291;52.250;21.228;2024-02-15T04:27:44;14.78;;;8.30;;
36253;SDS011;22291;52.250;21.228;2024-02-15T04:30:14;15.68;;;8.85;;
36253;SDS011;22291;52.250;21.228;2024-02-15T04:32:44;16.23;;;8.78;;
36253;SDS011;22291;52.250;21.228;2024-02-15T04:35:17;16.80;;;8.53;;
36253;SDS011;22291;52.250;21.228;2024-02-15T04:37:44;15.35;;;8.23;;
36253;SDS011;22291;52.250;21.228;2024-02-15T04:40:12;16.93;;;9.63;;
36253;SDS011;22291;52.250;21.228;2024-02-15T04:42:39;16.45;;;8.33;;
36253;SDS011;22291;52.250;21.228;2024-02-15T04:45:10;15.35;;;9.05;;
36253;SDS011;22291;52.250;21.228;2024-02-15T04:47:43;22.15;;;9.25;;
36253;SDS011;22291;52.250;21.228;2024-02-15T04:50:12;16.23;;;7.80;;
36253;SDS011;22291;52.250;21.228;2024-02-15T04:52:38;16.87;;;8.33;;
36253;SDS011;22291;52.250;21.228;2024-02-15T04:55:09;17.70;;;8.50;;
36253;SDS011;22291;52.250;21.228;2024-02-15T04:57:35;15.88;;;8.38;;
36253;SDS011;22291;52.250;21.228;2024-02-15T05:00:06;17.27;;;8.15;;
36253;SDS011;22291;52.250;21.228;2024-02-15T05:02:35;16.35;;;9.18;;
36253;SDS011;22291;52.250;21.228;2024-02-15T05:05:07;18.40;;;9.20;;
36253;SDS011;22291;52.250;21.228;2024-02-15T05:07:34;15.03;;;8.88;;
36253;SDS011;22291;52.250;21.228;2024-02-15T05:10:06;16.00;;;8.08;;
36253;SDS011;22291;52.250;21.228;2024-02-15T05:12:35;14.38;;;8.50;;
36253;SDS011;22291;52.250;21.228;2024-02-15T05:15:11;21.62;;;9.75;;
36253;SDS011;22291;52.250;21.228;2024-02-15T05:17:38;18.45;;;8.93;;
36253;SDS011;22291;52.250;21.228;2024-02-15T05:20:10;23.18;;;10.08;;
36253;SDS011;22291;52.250;21.228;2024-02-15T05:22:39;15.88;;;8.30;;
36253;SDS011;22291;52.250;21.228;2024-02-15T05:25:12;16.67;;;8.98;;
36253;SDS011;22291;52.250;21.228;2024-02-15T05:27:40;16.23;;;8.43;;
36253;SDS011;22291;52.250;21.228;2024-02-15T05:30:12;19.95;;;8.98;;
36253;SDS011;22291;52.250;21.228;2024-02-15T05:32:40;17.12;;;9.05;;
36253;SDS011;22291;52.250;21.228;2024-02-15T05:35:08;18.80;;;9.60;;
36253;SDS011;22291;52.250;21.228;2024-02-15T05:37:40;18.48;;;9.05;;
36253;SDS011;22291;52.250;21.228;2024-02-15T05:40:09;17.17;;;9.15;;
36253;SDS011;22291;52.250;21.228;2024-02-15T05:42:38;17.73;;;8.45;;
36253;SDS011;22291;52.250;21.228;2024-02-15T05:47:56;16.02;;;9.68;;
36253;SDS011;22291;52.250;21.228;2024-02-15T05:50:24;14.70;;;9.28;;
36253;SDS011;22291;52.250;21.228;2024-02-15T05:53:12;16.10;;;9.50;;
36253;SDS011;22291;52.250;21.228;2024-02-15T05:55:38;16.27;;;9.10;;
36253;SDS011;22291;52.250;21.228;2024-02-15T05:58:07;13.05;;;8.10;;
36253;SDS011;22291;52.250;21.228;2024-02-15T06:00:35;17.02;;;9.10;;
36253;SDS011;22291;52.250;21.228;2024-02-15T06:03:01;19.50;;;9.30;;
36253;SDS011;22291;52.250;21.228;2024-02-15T06:05:29;17.37;;;9.63;;
36253;SDS011;22291;52.250;21.228;2024-02-15T06:07:55;19.15;;;10.25;;
36253;SDS011;22291;52.250;21.228;2024-02-15T06:10:23;19.02;;;9.40;;
36253;SDS011;22291;52.250;21.228;2024-02-15T06:12:51;15.65;;;9.28;;
36253;SDS011;22291;52.250;21.228;2024-02-15T06:15:18;17.95;;;10.58;;
36253;SDS011;22291;52.250;21.228;2024-02-15T06:17:46;21.93;;;9.10;;
36253;SDS011;22291;52.250;21.228;2024-02-15T06:20:15;19.05;;;9.15;;
36253;SDS011;22291;52.250;21.228;2024-02-15T06:22:47;15.20;;;8.73;;
36253;SDS011;22291;52.250;21.228;2024-02-15T06:25:17;26.60;;;9.95;;
36253;SDS011;22291;52.250;21.228;2024-02-15T06:27:46;15.43;;;9.27;;
36253;SDS011;22291;52.250;21.228;2024-02-15T06:30:16;17.62;;;8.80;;
36253;SDS011;22291;52.250;21.228;2024-02-15T06:33:23;20.25;;;10.00;;
36253;SDS011;22291;52.250;21.228;2024-02-15T06:36:08;19.40;;;9.23;;
36253;SDS011;22291;52.250;21.228;2024-02-15T06:38:48;16.15;;;9.23;;
36253;SDS011;22291;52.250;21.228;2024-02-15T06:41:33;17.37;;;9.40;;
36253;SDS011;22291;52.250;21.228;2024-02-15T06:44:00;16.85;;;9.03;;
36253;SDS011;22291;52.250;21.228;2024-02-15T06:46:28;19.75;;;9.88;;
36253;SDS011;22291;52.250;21.228;2024-02-15T06:48:54;20.70;;;10.48;;
36253;SDS011;22291;52.250;21.228;2024-02-15T06:51:21;21.73;;;10.00;;
36253;SDS011;22291;52.250;21.228;2024-02-15T06:53:47;19.25;;;10.63;;
36253;SDS011;22291;52.250;21.228;2024-02-15T06:56:15;26.85;;;11.80;;
36253;SDS011;22291;52.250;21.228;2024-02-15T06:58:43;20.45;;;10.08;;
36253;SDS011;22291;52.250;21.228;2024-02-15T07:01:11;19.40;;;10.70;;
36253;SDS011;22291;52.250;21.228;2024-02-15T07:03:40;20.95;;;11.40;;
36253;SDS011;22291;52.250;21.228;2024-02-15T07:06:06;21.30;;;11.05;;
36253;SDS011;22291;52.250;21.228;2024-02-15T07:08:33;27.32;;;13.18;;
36253;SDS011;22291;52.250;21.228;2024-02-15T07:11:01;24.20;;;13.00;;
36253;SDS011;22291;52.250;21.228;2024-02-15T07:13:32;22.77;;;12.35;;
36253;SDS011;22291;52.250;21.228;2024-02-15T07:16:00;27.27;;;12.20;;
36253;SDS011;22291;52.250;21.228;2024-02-15T07:18:28;22.65;;;12.47;;
36253;SDS011;22291;52.250;21.228;2024-02-15T07:20:55;25.90;;;13.20;;
36253;SDS011;22291;52.250;21.228;2024-02-15T07:23:23;60.23;;;39.35;;
36253;SDS011;22291;52.250;21.228;2024-02-15T07:25:53;29.25;;;13.98;;
36253;SDS011;22291;52.250;21.228;2024-02-15T07:28:19;24.60;;;13.00;;
36253;SDS011;22291;52.250;21.228;2024-02-15T07:30:47;28.00;;;13.03;;
36253;SDS011;22291;52.250;21.228;2024-02-15T07:33:16;24.50;;;12.93;;
36253;SDS011;22291;52.250;21.228;2024-02-15T07:35:44;25.52;;;12.40;;
36253;SDS011;22291;52.250;21.228;2024-02-15T07:38:12;25.68;;;12.98;;
36253;SDS011;22291;52.250;21.228;2024-02-15T07:40:40;28.25;;;13.18;;
36253;SDS011;22291;52.250;21.228;2024-02-15T07:43:07;23.18;;;13.25;;
36253;SDS011;22291;52.250;21.228;2024-02-15T07:45:33;25.60;;;12.70;;
36253;SDS011;22291;52.250;21.228;2024-02-15T07:48:04;30.30;;;12.45;;
36253;SDS011;22291;52.250;21.228;2024-02-15T07:50:32;85.55;;;78.83;;
36253;SDS011;22291;52.250;21.228;2024-02-15T07:52:59;87.37;;;79.72;;
36253;SDS011;22291;52.250;21.228;2024-02-15T07:55:25;82.60;;;76.10;;
36253;SDS011;22291;52.250;21.228;2024-02-15T07:57:55;85.87;;;78.62;;
36253;SDS011;22291;52.250;21.228;2024-02-15T08:00:23;81.53;;;74.77;;
36253;SDS011;22291;52.250;21.228;2024-02-15T08:02:51;25.60;;;13.80;;
36253;SDS011;22291;52.250;21.228;2024-02-15T08:05:21;27.93;;;15.23;;
36253;SDS011;22291;52.250;21.228;2024-02-15T08:07:47;28.92;;;16.15;;
36253;SDS011;22291;52.250;21.228;2024-02-15T08:10:16;32.33;;;16.55;;
36253;SDS011;22291;52.250;21.228;2024-02-15T08:12:44;29.40;;;16.40;;
36253;SDS011;22291;52.250;21.228;2024-02-15T08:15:14;30.80;;;15.35;;
36253;SDS011;22291;52.250;21.228;2024-02-15T08:17:43;29.60;;;15.38;;
36253;SDS011;22291;52.250;21.228;2024-02-15T08:20:12;28.23;;;15.75;;
36253;SDS011;22291;52.250;21.228;2024-02-15T08:22:43;32.83;;;17.05;;
36253;SDS011;22291;52.250;21.228;2024-02-15T08:25:12;28.92;;;16.50;;
36253;SDS011;22291;52.250;21.228;2024-02-15T08:27:46;33.55;;;16.65;;
36253;SDS011;22291;52.250;21.228;2024-02-15T08:30:21;33.23;;;16.50;;
36253;SDS011;22291;52.250;21.228;2024-02-15T08:32:51;36.40;;;18.00;;
36253;SDS011;22291;52.250;21.228;2024-02-15T08:35:19;35.43;;;19.02;;
36253;SDS011;22291;52.250;21.228;2024-02-15T08:37:49;28.40;;;17.40;;
36253;SDS011;22291;52.250;21.228;2024-02-15T08:40:18;40.10;;;19.27;;
36253;SDS011;22291;52.250;21.228;2024-02-15T08:42:48;28.38;;;17.67;;
36253;SDS011;22291;52.250;21.228;2024-02-15T08:45:17;39.83;;;19.57;;
36253;SDS011;22291;52.250;21.228;2024-02-15T08:47:43;33.53;;;18.35;;
36253;SDS011;22291;52.250;21.228;2024-02-15T08:50:13;36.90;;;18.52;;
36253;SDS011;22291;52.250;21.228;2024-02-15T08:52:43;37.05;;;17.80;;
36253;SDS011;22291;52.250;21.228;2024-02-15T08:55:09;34.35;;;18.67;;
36253;SDS011;22291;52.250;21.228;2024-02-15T08:57:39;33.08;;;19.48;;
36253;SDS011;22291;52.250;21.228;2024-02-15T09:00:14;37.13;;;19.50;;
36253;SDS011;22291;52.250;21.228;2024-02-15T09:02:44;35.95;;;20.05;;
36253;SDS011;22291;52.250;21.228;2024-02-15T09:05:19;39.80;;;20.30;;
36253;SDS011;22291;52.250;21.228;2024-02-15T09:07:49;38.05;;;19.90;;
36253;SDS011;22291;52.250;21.228;2024-02-15T09:10:17;34.70;;;19.37;;
36253;SDS011;22291;52.250;21.228;2024-02-15T09:12:45;37.88;;;20.00;;
36253;SDS011;22291;52.250;21.228;2024-02-15T09:15:15;32.88;;;19.12;;
36253;SDS011;22291;52.250;21.228;2024-02-15T09:17:43;36.30;;;19.67;;
36253;SDS011;22291;52.250;21.228;2024-02-15T09:20:13;38.42;;;19.25;;
36253;SDS011;22291;52.250;21.228;2024-02-15T09:22:52;39.78;;;20.90;;
36253;SDS011;22291;52.250;21.228;2024-02-15T09:25:22;39.35;;;21.30;;
36253;SDS011;22291;52.250;21.228;2024-02-15T09:27:51;43.68;;;20.40;;
36253;SDS011;22291;52.250;21.228;2024-02-15T09:30:20;40.05;;;21.85;;
36253;SDS011;22291;52.250;21.228;2024-02-15T09:32:48;42.65;;;21.55;;
36253;SDS011;22291;52.250;21.228;2024-02-15T09:35:14;40.28;;;21.15;;
36253;SDS011;22291;52.250;21.228;2024-02-15T09:37:45;42.93;;;22.30;;
36253;SDS011;22291;52.250;21.228;2024-02-15T09:40:17;40.50;;;22.60;;
36253;SDS011;22291;52.250;21.228;2024-02-15T09:42:46;40.25;;;22.77;;
36253;SDS011;22291;52.250;21.228;2024-02-15T09:45:14;41.42;;;22.67;;
36253;SDS011;22291;52.250;21.228;2024-02-15T09:47:44;45.05;;;22.55;;
36253;SDS011;22291;52.250;21.228;2024-02-15T09:50:16;37.23;;;21.87;;
36253;SDS011;22291;52.250;21.228;2024-02-15T09:52:50;49.63;;;23.02;;
36253;SDS011;22291;52.250;21.228;2024-02-15T09:55:20;44.35;;;22.10;;
36253;SDS011;22291;52.250;21.228;2024-02-15T09:57:50;43.87;;;22.58;;
36253;SDS011;22291;52.250;21.228;2024-02-15T10:00:21;41.02;;;23.00;;
36253;SDS011;22291;52.250;21.228;2024-02-15T10:02:52;45.28;;;22.85;;
36253;SDS011;22291;52.250;21.228;2024-02-15T10:05:22;47.50;;;23.32;;
36253;SDS011;22291;52.250;21.228;2024-02-15T10:07:48;42.35;;;22.25;;
36253;SDS011;22291;52.250;21.228;2024-02-15T10:10:21;49.25;;;22.75;;
36253;SDS011;22291;52.250;21.228;2024-02-15T10:12:51;43.80;;;21.52;;
36253;SDS011;22291;52.250;21.228;2024-02-15T10:15:37;42.35;;;22.17;;
36253;SDS011;22291;52.250;21.228;2024-02-15T10:18:07;42.20;;;21.75;;
36253;SDS011;22291;52.250;21.228;2024-02-15T10:20:38;47.40;;;23.70;;
36253;SDS011;22291;52.250;21.228;2024-02-15T10:23:14;43.68;;;23.20;;
36253;SDS011;22291;52.250;21.228;2024-02-15T10:25:45;40.67;;;21.20;;
36253;SDS011;22291;52.250;21.228;2024-02-15T10:28:14;39.45;;;23.55;;
36253;SDS011;22291;52.250;21.228;2024-02-15T10:30:45;37.90;;;21.35;;
36253;SDS011;22291;52.250;21.228;2024-02-15T10:33:26;42.73;;;23.57;;
36253;SDS011;22291;52.250;21.228;2024-02-15T10:38:40;41.53;;;23.12;;
36253;SDS011;22291;52.250;21.228;2024-02-15T10:41:08;45.67;;;23.83;;
36253;SDS011;22291;52.250;21.228;2024-02-15T10:43:36;42.13;;;23.77;;
36253;SDS011;22291;52.250;21.228;2024-02-15T10:46:06;44.33;;;23.70;;
36253;SDS011;22291;52.250;21.228;2024-02-15T10:48:38;45.92;;;24.75;;
36253;SDS011;22291;52.250;21.228;2024-02-15T10:51:08;41.02;;;23.92;;
36253;SDS011;22291;52.250;21.228;2024-02-15T10:53:39;43.73;;;24.10;;
36253;SDS011;22291;52.250;21.228;2024-02-15T10:56:18;46.30;;;24.50;;
36253;SDS011;22291;52.250;21.228;2024-02-15T10:58:53;46.53;;;25.32;;
36253;SDS011;22291;52.250;21.228;2024-02-15T11:01:34;43.55;;;24.10;;
36253;SDS011;22291;52.250;21.228;2024-02-15T11:04:06;42.83;;;23.45;;
36253;SDS011;22291;52.250;21.228;2024-02-15T11:06:38;43.13;;;23.62;;
36253;SDS011;22291;52.250;21.228;2024-02-15T11:09:08;38.48;;;23.25;;
36253;SDS011;22291;52.250;21.228;2024-02-15T11:11:40;43.08;;;23.20;;
36253;SDS011;22291;52.250;21.228;2024-02-15T11:14:27;36.20;;;22.37;;
36253;SDS011;22291;52.250;21.228;2024-02-15T11:17:00;42.30;;;23.07;;
36253;SDS011;22291;52.250;21.228;2024-02-15T11:22:08;45.05;;;23.18;;
36253;SDS011;22291;52.250;21.228;2024-02-15T11:24:50;37.58;;;23.22;;
36253;SDS011;22291;52.250;21.228;2024-02-15T11:27:25;45.08;;;23.75;;
36253;SDS011;22291;52.250;21.228;2024-02-15T11:29:57;44.03;;;24.95;;
36253;SDS011;22291;52.250;21.228;2024-02-15T11:32:35;42.20;;;23.55;;
36253;SDS011;22291;52.250;21.228;2024-02-15T11:35:24;46.98;;;23.98;;
36253;SDS011;22291;52.250;21.228;2024-02-15T11:37:55;38.28;;;22.82;;
36253;SDS011;22291;52.250;21.228;2024-02-15T11:40:59;42.40;;;24.57;;
36253;SDS011;22291;52.250;21.228;2024-02-15T11:43:07;44.55;;;24.02;;
36253;SDS011;22291;52.250;21.228;2024-02-15T11:45:40;42.08;;;22.98;;
36253;SDS011;22291;52.250;21.228;2024-02-15T11:48:09;51.33;;;29.15;;
36253;SDS011;22291;52.250;21.228;2024-02-15T11:50:42;44.42;;;23.02;;
36253;SDS011;22291;52.250;21.228;2024-02-15T11:53:15;45.30;;;26.05;;
36253;SDS011;22291;52.250;21.228;2024-02-15T11:55:43;42.45;;;23.95;;
36253;SDS011;22291;52.250;21.228;2024-02-15T11:58:12;39.98;;;22.45;;
36253;SDS011;22291;52.250;21.228;2024-02-15T12:00:45;51.28;;;24.40;;
36253;SDS011;22291;52.250;21.228;2024-02-15T12:03:23;42.05;;;23.20;;
36253;SDS011;22291;52.250;21.228;2024-02-15T12:06:09;37.90;;;21.75;;
36253;SDS011;22291;52.250;21.228;2024-02-15T12:08:55;36.03;;;21.85;;
36253;SDS011;22291;52.250;21.228;2024-02-15T12:11:40;38.20;;;21.35;;
36253;SDS011;22291;52.250;21.228;2024-02-15T12:14:26;34.25;;;20.82;;
36253;SDS011;22291;52.250;21.228;2024-02-15T12:17:11;35.88;;;21.30;;
36253;SDS011;22291;52.250;21.228;2024-02-15T12:20:01;38.10;;;21.97;;
36253;SDS011;22291;52.250;21.228;2024-02-15T12:22:46;38.73;;;21.50;;
36253;SDS011;22291;52.250;21.228;2024-02-15T12:25:16;37.80;;;21.48;;
36253;SDS011;22291;52.250;21.228;2024-02-15T12:27:54;37.53;;;21.48;;
36253;SDS011;22291;52.250;21.228;2024-02-15T12:30:25;37.08;;;20.95;;
36253;SDS011;22291;52.250;21.228;2024-02-15T12:33:08;36.28;;;20.48;;
36253;SDS011;22291;52.250;21.228;2024-02-15T12:35:42;35.55;;;21.20;;
36253;SDS011;22291;52.250;21.228;2024-02-15T12:38:08;34.83;;;20.97;;
36253;SDS011;22291;52.250;21.228;2024-02-15T12:40:35;36.35;;;20.92;;
36253;SDS011;22291;52.250;21.228;2024-02-15T12:43:09;35.55;;;20.62;;
36253;SDS011;22291;52.250;21.228;2024-02-15T12:45:41;32.75;;;20.10;;
36253;SDS011;22291;52.250;21.228;2024-02-15T12:48:08;32.78;;;20.65;;
36253;SDS011;22291;52.250;21.228;2024-02-15T12:50:36;36.88;;;20.32;;
36253;SDS011;22291;52.250;21.228;2024-02-15T12:53:03;36.73;;;20.43;;
36253;SDS011;22291;52.250;21.228;2024-02-15T12:55:32;35.88;;;19.75;;
36253;SDS011;22291;52.250;21.228;2024-02-15T12:58:01;35.75;;;20.57;;
36253;SDS011;22291;52.250;21.228;2024-02-15T13:00:32;34.10;;;19.32;;
36253;SDS011;22291;52.250;21.228;2024-02-15T13:03:02;31.55;;;19.92;;
36253;SDS011;22291;52.250;21.228;2024-02-15T13:07:57;31.93;;;18.07;;
36253;SDS011;22291;52.250;21.228;2024-02-15T13:10:24;55.38;;;32.88;;
36253;SDS011;22291;52.250;21.228;2024-02-15T13:12:54;34.90;;;20.27;;
36253;SDS011;22291;52.250;21.228;2024-02-15T13:15:22;28.35;;;17.15;;
36253;SDS011;22291;52.250;21.228;2024-02-15T13:17:53;28.75;;;18.82;;
36253;SDS011;22291;52.250;21.228;2024-02-15T13:20:21;33.48;;;19.15;;
36253;SDS011;22291;52.250;21.228;2024-02-15T13:22:59;32.55;;;17.02;;
36253;SDS011;22291;52.250;21.228;2024-02-15T13:25:28;30.88;;;17.95;;
36253;SDS011;22291;52.250;21.228;2024-02-15T13:27:56;28.55;;;16.60;;
36253;SDS011;22291;52.250;21.228;2024-02-15T13:30:23;30.37;;;18.30;;
36253;SDS011;22291;52.250;21.228;2024-02-15T13:32:51;30.72;;;18.10;;
36253;SDS011;22291;52.250;21.228;2024-02-15T13:35:17;29.42;;;17.57;;
36253;SDS011;22291;52.250;21.228;2024-02-15T13:37:46;30.82;;;18.25;;
36253;SDS011;22291;52.250;21.228;2024-02-15T13:40:14;32.28;;;17.40;;
36253;SDS011;22291;52.250;21.228;2024-02-15T13:42:46;34.27;;;18.25;;
36253;SDS011;22291;52.250;21.228;2024-02-15T13:45:20;27.73;;;16.75;;
36253;SDS011;22291;52.250;21.228;2024-02-15T13:47:49;31.25;;;17.62;;
36253;SDS011;22291;52.250;21.228;2024-02-15T13:52:45;32.75;;;18.20;;
36253;SDS011;22291;52.250;21.228;2024-02-15T13:55:14;28.32;;;17.10;;
36253;SDS011;22291;52.250;21.228;2024-02-15T13:57:44;31.33;;;17.82;;
36253;SDS011;22291;52.250;21.228;2024-02-15T14:00:14;28.80;;;17.57;;
36253;SDS011;22291;52.250;21.228;2024-02-15T14:05:22;33.73;;;17.37;;
36253;SDS011;22291;52.250;21.228;2024-02-15T14:08:00;25.43;;;17.25;;
36253;SDS011;22291;52.250;21.228;2024-02-15T14:10:31;28.32;;;16.65;;
36253;SDS011;22291;52.250;21.228;2024-02-15T14:13:03;27.42;;;16.32;;
36253;SDS011;22291;52.250;21.228;2024-02-15T14:15:31;29.32;;;17.17;;
36253;SDS011;22291;52.250;21.228;2024-02-15T14:18:01;31.80;;;17.10;;
36253;SDS011;22291;52.250;21.228;2024-02-15T14:20:28;29.50;;;17.27;;
36253;SDS011;22291;52.250;21.228;2024-02-15T14:22:54;39.18;;;22.70;;
36253;SDS011;22291;52.250;21.228;2024-02-15T14:25:26;29.50;;;18.90;;
36253;SDS011;22291;52.250;21.228;2024-02-15T14:27:53;28.07;;;16.97;;
36253;SDS011;22291;52.250;21.228;2024-02-15T14:30:23;29.15;;;16.73;;
36253;SDS011;22291;52.250;21.228;2024-02-15T14:33:28;31.45;;;16.77;;
36253;SDS011;22291;52.250;21.228;2024-02-15T14:35:55;33.45;;;16.65;;
36253;SDS011;22291;52.250;21.228;2024-02-15T14:38:22;29.05;;;16.45;;
36253;SDS011;22291;52.250;21.228;2024-02-15T14:40:50;30.88;;;17.20;;
36253;SDS011;22291;52.250;21.228;2024-02-15T14:43:19;29.67;;;16.90;;
36253;SDS011;22291;52.250;21.228;2024-02-15T14:45:47;29.50;;;16.62;;
36253;SDS011;22291;52.250;21.228;2024-02-15T14:48:15;34.75;;;18.27;;
36253;SDS011;22291;52.250;21.228;2024-02-15T14:50:44;31.60;;;17.62;;
36253;SDS011;22291;52.250;21.228;2024-02-15T14:53:11;27.37;;;16.30;;